sensor_id;sensor_type;location;lat;lon;timestamp;temperature;humidity
22526;DHT22;11429;50.842;4.386;2023-02-10T00:00:11;5.40;99.90
22526;DHT22;11429;50.842;4.386;2023-02-10T00:02:37;5.80;99.90
22526;DHT22;11429;50.842;4.386;2023-02-10T00:05:02;6.10;99.90
22526;DHT22;11429;50.842;4.386;2023-02-10T00:07:28;5.80;99.90
22526;DHT22;11429;50.842;4.386;2023-02-10T00:09:54;5.60;99.90
22526;DHT22;11429;50.842;4.386;2023-02-10T00:12:19;5.50;99.90
22526;DHT22;11429;50.842;4.386;2023-02-10T00:14:45;5.30;99.90
22526;DHT22;11429;50.842;4.386;2023-02-10T00:17:11;5.60;99.90
22526;DHT22;11429;50.842;4.386;2023-02-10T00:19:38;5.60;99.90
22526;DHT22;11429;50.842;4.386;2023-02-10T00:22:04;5.40;99.90
22526;DHT22;11429;50.842;4.386;2023-02-10T00:24:29;5.40;99.90
22526;DHT22;11429;50.842;4.386;2023-02-10T00:26:55;5.50;99.90
22526;DHT22;11429;50.842;4.386;2023-02-10T00:29:20;5.60;99.90
22526;DHT22;11429;50.842;4.386;2023-02-10T00:31:46;5.70;99.90
22526;DHT22;11429;50.842;4.386;2023-02-10T00:34:13;5.60;99.90
22526;DHT22;11429;50.842;4.386;2023-02-10T00:36:40;5.40;99.90
22526;DHT22;11429;50.842;4.386;2023-02-10T00:39:07;5.50;99.90
22526;DHT22;11429;50.842;4.386;2023-02-10T00:41:32;5.50;99.90
22526;DHT22;11429;50.842;4.386;2023-02-10T00:43:58;5.40;99.90
22526;DHT22;11429;50.842;4.386;2023-02-10T00:46:24;5.50;99.90
22526;DHT22;11429;50.842;4.386;2023-02-10T00:48:50;6.00;99.90
22526;DHT22;11429;50.842;4.386;2023-02-10T00:51:16;5.80;99.90
22526;DHT22;11429;50.842;4.386;2023-02-10T00:53:43;5.40;99.90
22526;DHT22;11429;50.842;4.386;2023-02-10T00:56:09;5.50;99.90
22526;DHT22;11429;50.842;4.386;2023-02-10T00:58:36;5.40;99.90
22526;DHT22;11429;50.842;4.386;2023-02-10T01:01:02;5.30;99.90
22526;DHT22;11429;50.842;4.386;2023-02-10T01:03:28;5.30;99.90
22526;DHT22;11429;50.842;4.386;2023-02-10T01:05:53;5.50;99.90
22526;DHT22;11429;50.842;4.386;2023-02-10T01:08:19;5.40;99.90
22526;DHT22;11429;50.842;4.386;2023-02-10T01:10:45;5.30;99.90
22526;DHT22;11429;50.842;4.386;2023-02-10T01:13:12;5.10;99.90
22526;DHT22;11429;50.842;4.386;2023-02-10T01:15:45;5.30;99.90
22526;DHT22;11429;50.842;4.386;2023-02-10T01:18:12;5.40;99.90
22526;DHT22;11429;50.842;4.386;2023-02-10T01:20:39;5.50;99.90
22526;DHT22;11429;50.842;4.386;2023-02-10T01:23:05;5.80;99.90
22526;DHT22;11429;50.842;4.386;2023-02-10T01:25:32;6.00;99.90
22526;DHT22;11429;50.842;4.386;2023-02-10T01:27:59;5.90;99.90
22526;DHT22;11429;50.842;4.386;2023-02-10T01:30:25;5.70;99.90
22526;DHT22;11429;50.842;4.386;2023-02-10T01:32:54;5.80;99.90
22526;DHT22;11429;50.842;4.386;2023-02-10T01:35:20;5.90;99.90
22526;DHT22;11429;50.842;4.386;2023-02-10T01:37:46;6.00;99.90
22526;DHT22;11429;50.842;4.386;2023-02-10T01:40:11;6.00;99.90
22526;DHT22;11429;50.842;4.386;2023-02-10T01:42:37;6.00;99.90
22526;DHT22;11429;50.842;4.386;2023-02-10T01:45:53;5.90;99.90
22526;DHT22;11429;50.842;4.386;2023-02-10T01:48:01;5.70;99.90
22526;DHT22;11429;50.842;4.386;2023-02-10T01:51:03;6.00;99.90
22526;DHT22;11429;50.842;4.386;2023-02-10T01:53:30;6.00;99.90
22526;DHT22;11429;50.842;4.386;2023-02-10T01:55:58;5.80;99.90
22526;DHT22;11429;50.842;4.386;2023-02-10T01:58:28;5.60;99.90
22526;DHT22;11429;50.842;4.386;2023-02-10T02:00:55;6.00;99.90
22526;DHT22;11429;50.842;4.386;2023-02-10T02:03:20;6.10;99.90
22526;DHT22;11429;50.842;4.386;2023-02-10T02:05:46;6.10;99.90
22526;DHT22;11429;50.842;4.386;2023-02-10T02:08:26;6.20;99.90
22526;DHT22;11429;50.842;4.386;2023-02-10T02:11:13;6.20;99.90
22526;DHT22;11429;50.842;4.386;2023-02-10T02:14:18;6.10;99.90
22526;DHT22;11429;50.842;4.386;2023-02-10T02:34:21;5.00;99.90
22526;DHT22;11429;50.842;4.386;2023-02-10T02:36:57;5.00;99.90
22526;DHT22;11429;50.842;4.386;2023-02-10T02:39:26;5.00;99.90
22526;DHT22;11429;50.842;4.386;2023-02-10T02:42:21;5.00;99.90
22526;DHT22;11429;50.842;4.386;2023-02-10T02:44:57;4.80;99.90
22526;DHT22;11429;50.842;4.386;2023-02-10T02:52:44;4.70;99.90
22526;DHT22;11429;50.842;4.386;2023-02-10T02:58:09;4.60;99.90
22526;DHT22;11429;50.842;4.386;2023-02-10T03:00:37;4.40;99.90
22526;DHT22;11429;50.842;4.386;2023-02-10T03:03:04;4.40;99.90
22526;DHT22;11429;50.842;4.386;2023-02-10T03:05:31;4.50;99.90
22526;DHT22;11429;50.842;4.386;2023-02-10T03:07:57;4.60;99.90
22526;DHT22;11429;50.842;4.386;2023-02-10T03:10:23;4.50;99.90
22526;DHT22;11429;50.842;4.386;2023-02-10T03:12:49;4.40;99.90
22526;DHT22;11429;50.842;4.386;2023-02-10T03:15:16;4.30;99.90
22526;DHT22;11429;50.842;4.386;2023-02-10T03:17:42;4.40;99.90
22526;DHT22;11429;50.842;4.386;2023-02-10T03:20:08;4.40;99.90
22526;DHT22;11429;50.842;4.386;2023-02-10T03:22:34;4.40;99.90
22526;DHT22;11429;50.842;4.386;2023-02-10T03:25:00;4.40;99.90
22526;DHT22;11429;50.842;4.386;2023-02-10T03:27:26;4.40;99.90
22526;DHT22;11429;50.842;4.386;2023-02-10T03:29:51;4.60;99.90
22526;DHT22;11429;50.842;4.386;2023-02-10T03:32:18;4.70;99.90
22526;DHT22;11429;50.842;4.386;2023-02-10T03:34:45;4.60;99.90
22526;DHT22;11429;50.842;4.386;2023-02-10T03:37:12;4.70;99.90
22526;DHT22;11429;50.842;4.386;2023-02-10T03:39:37;5.00;99.90
22526;DHT22;11429;50.842;4.386;2023-02-10T03:42:04;5.00;99.90
22526;DHT22;11429;50.842;4.386;2023-02-10T03:44:30;5.00;99.90
22526;DHT22;11429;50.842;4.386;2023-02-10T03:46:56;4.80;99.90
22526;DHT22;11429;50.842;4.386;2023-02-10T03:49:22;4.90;99.90
22526;DHT22;11429;50.842;4.386;2023-02-10T03:51:48;4.90;99.90
22526;DHT22;11429;50.842;4.386;2023-02-10T03:54:13;4.90;99.90
22526;DHT22;11429;50.842;4.386;2023-02-10T03:56:39;4.80;99.90
22526;DHT22;11429;50.842;4.386;2023-02-10T03:59:05;4.70;99.90
22526;DHT22;11429;50.842;4.386;2023-02-10T04:01:31;4.60;99.90
22526;DHT22;11429;50.842;4.386;2023-02-10T04:03:57;4.60;99.90
22526;DHT22;11429;50.842;4.386;2023-02-10T04:06:23;4.70;99.90
22526;DHT22;11429;50.842;4.386;2023-02-10T04:08:48;5.20;99.90
22526;DHT22;11429;50.842;4.386;2023-02-10T04:11:14;5.50;99.90
22526;DHT22;11429;50.842;4.386;2023-02-10T04:13:40;5.40;99.90
22526;DHT22;11429;50.842;4.386;2023-02-10T04:16:12;5.40;99.90
22526;DHT22;11429;50.842;4.386;2023-02-10T04:18:38;5.20;99.90
22526;DHT22;11429;50.842;4.386;2023-02-10T04:21:05;5.20;99.90
22526;DHT22;11429;50.842;4.386;2023-02-10T04:23:31;5.10;99.90
22526;DHT22;11429;50.842;4.386;2023-02-10T04:25:58;5.10;99.90
22526;DHT22;11429;50.842;4.386;2023-02-10T04:28:24;5.10;99.90
22526;DHT22;11429;50.842;4.386;2023-02-10T04:30:58;4.90;99.90
22526;DHT22;11429;50.842;4.386;2023-02-10T04:33:24;4.70;99.90
22526;DHT22;11429;50.842;4.386;2023-02-10T04:35:53;4.60;99.90
22526;DHT22;11429;50.842;4.386;2023-02-10T04:38:19;4.70;99.90
22526;DHT22;11429;50.842;4.386;2023-02-10T04:40:45;4.50;99.90
22526;DHT22;11429;50.842;4.386;2023-02-10T04:43:11;4.70;99.90
22526;DHT22;11429;50.842;4.386;2023-02-10T04:45:39;4.40;99.90
22526;DHT22;11429;50.842;4.386;2023-02-10T04:48:05;4.40;99.90
22526;DHT22;11429;50.842;4.386;2023-02-10T04:50:31;4.50;99.90
22526;DHT22;11429;50.842;4.386;2023-02-10T04:52:57;4.50;99.90
22526;DHT22;11429;50.842;4.386;2023-02-10T04:55:23;4.50;99.90
22526;DHT22;11429;50.842;4.386;2023-02-10T04:57:48;4.40;99.90
22526;DHT22;11429;50.842;4.386;2023-02-10T05:00:14;4.20;99.90
22526;DHT22;11429;50.842;4.386;2023-02-10T05:02:40;4.00;99.90
22526;DHT22;11429;50.842;4.386;2023-02-10T05:05:08;3.90;99.90
22526;DHT22;11429;50.842;4.386;2023-02-10T05:07:34;3.80;99.90
22526;DHT22;11429;50.842;4.386;2023-02-10T05:10:00;4.00;99.90
22526;DHT22;11429;50.842;4.386;2023-02-10T05:12:25;4.10;99.90
22526;DHT22;11429;50.842;4.386;2023-02-10T05:14:51;4.10;99.90
22526;DHT22;11429;50.842;4.386;2023-02-10T05:17:17;4.10;99.90
22526;DHT22;11429;50.842;4.386;2023-02-10T05:19:42;4.00;99.90
22526;DHT22;11429;50.842;4.386;2023-02-10T05:22:08;4.00;99.90
22526;DHT22;11429;50.842;4.386;2023-02-10T05:24:34;3.90;99.90
22526;DHT22;11429;50.842;4.386;2023-02-10T05:26:59;4.00;99.90
22526;DHT22;11429;50.842;4.386;2023-02-10T05:29:25;4.30;99.90
22526;DHT22;11429;50.842;4.386;2023-02-10T05:31:50;4.40;99.90
22526;DHT22;11429;50.842;4.386;2023-02-10T05:34:16;4.60;99.90
22526;DHT22;11429;50.842;4.386;2023-02-10T05:36:42;4.70;99.90
22526;DHT22;11429;50.842;4.386;2023-02-10T05:39:10;5.00;99.90
22526;DHT22;11429;50.842;4.386;2023-02-10T05:41:55;4.90;99.90
22526;DHT22;11429;50.842;4.386;2023-02-10T05:44:21;4.60;99.90
22526;DHT22;11429;50.842;4.386;2023-02-10T05:46:48;4.60;99.90
22526;DHT22;11429;50.842;4.386;2023-02-10T05:49:14;4.90;99.90
22526;DHT22;11429;50.842;4.386;2023-02-10T05:51:39;5.00;99.90
22526;DHT22;11429;50.842;4.386;2023-02-10T05:54:05;4.90;99.90
22526;DHT22;11429;50.842;4.386;2023-02-10T05:56:31;4.60;99.90
22526;DHT22;11429;50.842;4.386;2023-02-10T05:58:57;4.40;99.90
22526;DHT22;11429;50.842;4.386;2023-02-10T06:01:23;4.30;99.90
22526;DHT22;11429;50.842;4.386;2023-02-10T06:03:49;4.40;99.90
22526;DHT22;11429;50.842;4.386;2023-02-10T06:06:15;4.40;99.90
22526;DHT22;11429;50.842;4.386;2023-02-10T06:08:40;4.20;99.90
22526;DHT22;11429;50.842;4.386;2023-02-10T06:11:06;4.10;99.90
22526;DHT22;11429;50.842;4.386;2023-02-10T06:13:31;3.90;99.90
22526;DHT22;11429;50.842;4.386;2023-02-10T06:15:57;3.90;99.90
22526;DHT22;11429;50.842;4.386;2023-02-10T06:18:23;3.80;99.90
22526;DHT22;11429;50.842;4.386;2023-02-10T06:20:49;3.80;99.90
22526;DHT22;11429;50.842;4.386;2023-02-10T06:23:16;3.80;99.90
22526;DHT22;11429;50.842;4.386;2023-02-10T06:25:43;3.90;99.90
22526;DHT22;11429;50.842;4.386;2023-02-10T06:28:08;3.90;99.90
22526;DHT22;11429;50.842;4.386;2023-02-10T06:30:34;4.10;99.90
22526;DHT22;11429;50.842;4.386;2023-02-10T06:33:00;4.00;99.90
22526;DHT22;11429;50.842;4.386;2023-02-10T06:35:26;4.00;99.90
22526;DHT22;11429;50.842;4.386;2023-02-10T06:37:51;4.20;99.90
22526;DHT22;11429;50.842;4.386;2023-02-10T06:40:17;4.20;99.90
22526;DHT22;11429;50.842;4.386;2023-02-10T06:42:43;4.10;99.90
22526;DHT22;11429;50.842;4.386;2023-02-10T06:45:09;3.90;99.90
22526;DHT22;11429;50.842;4.386;2023-02-10T06:47:35;3.90;99.90
22526;DHT22;11429;50.842;4.386;2023-02-10T06:50:01;4.00;99.90
22526;DHT22;11429;50.842;4.386;2023-02-10T06:52:27;4.00;99.90
22526;DHT22;11429;50.842;4.386;2023-02-10T06:54:53;4.00;99.90
22526;DHT22;11429;50.842;4.386;2023-02-10T06:57:19;4.00;99.90
22526;DHT22;11429;50.842;4.386;2023-02-10T06:59:44;4.20;99.90
22526;DHT22;11429;50.842;4.386;2023-02-10T07:02:11;4.40;99.90
22526;DHT22;11429;50.842;4.386;2023-02-10T07:04:39;4.30;99.90
22526;DHT22;11429;50.842;4.386;2023-02-10T07:07:05;4.20;99.90
22526;DHT22;11429;50.842;4.386;2023-02-10T07:09:31;4.20;99.90
22526;DHT22;11429;50.842;4.386;2023-02-10T07:11:58;4.20;99.90
22526;DHT22;11429;50.842;4.386;2023-02-10T07:14:23;4.10;99.90
22526;DHT22;11429;50.842;4.386;2023-02-10T07:16:49;4.00;99.90
22526;DHT22;11429;50.842;4.386;2023-02-10T07:19:15;4.00;99.90
22526;DHT22;11429;50.842;4.386;2023-02-10T07:21:41;4.00;99.90
22526;DHT22;11429;50.842;4.386;2023-02-10T07:24:06;4.00;99.90
22526;DHT22;11429;50.842;4.386;2023-02-10T07:26:32;4.00;99.90
22526;DHT22;11429;50.842;4.386;2023-02-10T07:28:58;4.00;99.90
22526;DHT22;11429;50.842;4.386;2023-02-10T07:31:24;4.00;99.90
22526;DHT22;11429;50.842;4.386;2023-02-10T07:33:49;4.00;99.90
22526;DHT22;11429;50.842;4.386;2023-02-10T07:36:15;4.10;99.90
22526;DHT22;11429;50.842;4.386;2023-02-10T07:38:41;4.10;99.90
22526;DHT22;11429;50.842;4.386;2023-02-10T07:41:07;4.20;99.90
22526;DHT22;11429;50.842;4.386;2023-02-10T07:43:33;4.20;99.90
22526;DHT22;11429;50.842;4.386;2023-02-10T07:45:59;4.20;99.90
22526;DHT22;11429;50.842;4.386;2023-02-10T07:48:25;4.30;99.90
22526;DHT22;11429;50.842;4.386;2023-02-10T07:50:51;4.40;99.90
22526;DHT22;11429;50.842;4.386;2023-02-10T07:53:21;4.50;99.90
22526;DHT22;11429;50.842;4.386;2023-02-10T07:55:47;4.60;99.90
22526;DHT22;11429;50.842;4.386;2023-02-10T07:58:13;4.80;99.90
22526;DHT22;11429;50.842;4.386;2023-02-10T08:00:39;4.80;99.90
22526;DHT22;11429;50.842;4.386;2023-02-10T08:03:05;5.00;99.90
22526;DHT22;11429;50.842;4.386;2023-02-10T08:05:30;5.30;99.90
22526;DHT22;11429;50.842;4.386;2023-02-10T08:07:56;5.20;99.90
22526;DHT22;11429;50.842;4.386;2023-02-10T08:10:23;5.20;99.90
22526;DHT22;11429;50.842;4.386;2023-02-10T08:12:48;4.90;99.90
22526;DHT22;11429;50.842;4.386;2023-02-10T08:15:14;4.90;99.90
22526;DHT22;11429;50.842;4.386;2023-02-10T08:17:44;4.90;99.90
22526;DHT22;11429;50.842;4.386;2023-02-10T08:20:10;4.90;99.90
22526;DHT22;11429;50.842;4.386;2023-02-10T08:22:36;5.00;99.90
22526;DHT22;11429;50.842;4.386;2023-02-10T08:25:02;5.30;99.90
22526;DHT22;11429;50.842;4.386;2023-02-10T08:27:28;5.50;99.90
22526;DHT22;11429;50.842;4.386;2023-02-10T08:29:54;5.50;99.90
22526;DHT22;11429;50.842;4.386;2023-02-10T08:32:20;5.70;99.90
22526;DHT22;11429;50.842;4.386;2023-02-10T08:34:50;5.60;99.90
22526;DHT22;11429;50.842;4.386;2023-02-10T08:37:17;5.50;99.90
22526;DHT22;11429;50.842;4.386;2023-02-10T08:39:43;5.60;99.90
22526;DHT22;11429;50.842;4.386;2023-02-10T08:42:09;5.80;99.90
22526;DHT22;11429;50.842;4.386;2023-02-10T08:44:35;5.60;99.90
22526;DHT22;11429;50.842;4.386;2023-02-10T08:47:00;5.60;99.90
22526;DHT22;11429;50.842;4.386;2023-02-10T08:49:26;5.50;99.90
22526;DHT22;11429;50.842;4.386;2023-02-10T08:51:53;5.60;99.90
22526;DHT22;11429;50.842;4.386;2023-02-10T08:54:19;5.60;99.90
22526;DHT22;11429;50.842;4.386;2023-02-10T08:56:45;5.70;99.90
22526;DHT22;11429;50.842;4.386;2023-02-10T08:59:11;5.60;99.90
22526;DHT22;11429;50.842;4.386;2023-02-10T09:01:38;5.40;99.90
22526;DHT22;11429;50.842;4.386;2023-02-10T09:04:04;5.20;99.90
22526;DHT22;11429;50.842;4.386;2023-02-10T09:06:35;5.10;99.90
22526;DHT22;11429;50.842;4.386;2023-02-10T09:09:06;4.90;99.90
22526;DHT22;11429;50.842;4.386;2023-02-10T09:11:32;4.90;99.90
22526;DHT22;11429;50.842;4.386;2023-02-10T09:13:58;4.90;99.90
22526;DHT22;11429;50.842;4.386;2023-02-10T09:16:24;5.00;99.90
22526;DHT22;11429;50.842;4.386;2023-02-10T09:18:49;5.10;99.90
22526;DHT22;11429;50.842;4.386;2023-02-10T09:21:16;5.10;99.90
22526;DHT22;11429;50.842;4.386;2023-02-10T09:23:42;5.10;99.90
22526;DHT22;11429;50.842;4.386;2023-02-10T09:26:08;5.10;99.90
22526;DHT22;11429;50.842;4.386;2023-02-10T09:28:34;5.10;99.90
22526;DHT22;11429;50.842;4.386;2023-02-10T09:31:00;5.20;99.90
22526;DHT22;11429;50.842;4.386;2023-02-10T09:33:26;5.30;99.90
22526;DHT22;11429;50.842;4.386;2023-02-10T09:35:52;5.30;99.90
22526;DHT22;11429;50.842;4.386;2023-02-10T09:38:17;5.50;99.90
22526;DHT22;11429;50.842;4.386;2023-02-10T09:44:36;6.10;99.90
22526;DHT22;11429;50.842;4.386;2023-02-10T09:50:02;6.00;99.90
22526;DHT22;11429;50.842;4.386;2023-02-10T09:54:55;6.20;99.90
22526;DHT22;11429;50.842;4.386;2023-02-10T09:58:16;6.40;99.90
22526;DHT22;11429;50.842;4.386;2023-02-10T10:00:41;6.20;99.90
22526;DHT22;11429;50.842;4.386;2023-02-10T10:03:14;6.20;99.90
22526;DHT22;11429;50.842;4.386;2023-02-10T10:05:52;5.90;99.90
22526;DHT22;11429;50.842;4.386;2023-02-10T10:08:29;6.00;99.90
22526;DHT22;11429;50.842;4.386;2023-02-10T10:11:05;6.10;99.90
22526;DHT22;11429;50.842;4.386;2023-02-10T10:13:32;6.10;99.90
22526;DHT22;11429;50.842;4.386;2023-02-10T10:19:20;6.10;99.90
22526;DHT22;11429;50.842;4.386;2023-02-10T10:22:25;6.30;99.90
22526;DHT22;11429;50.842;4.386;2023-02-10T10:30:11;6.20;99.90
22526;DHT22;11429;50.842;4.386;2023-02-10T10:32:50;6.30;99.90
22526;DHT22;11429;50.842;4.386;2023-02-10T10:35:26;6.60;99.90
22526;DHT22;11429;50.842;4.386;2023-02-10T10:37:54;6.80;99.90
22526;DHT22;11429;50.842;4.386;2023-02-10T10:40:30;6.90;99.90
22526;DHT22;11429;50.842;4.386;2023-02-10T10:43:00;7.10;99.90
22526;DHT22;11429;50.842;4.386;2023-02-10T10:45:34;7.10;99.90
22526;DHT22;11429;50.842;4.386;2023-02-10T10:48:11;7.20;99.90
22526;DHT22;11429;50.842;4.386;2023-02-10T10:50:39;7.30;99.90
22526;DHT22;11429;50.842;4.386;2023-02-10T10:53:20;7.30;99.90
22526;DHT22;11429;50.842;4.386;2023-02-10T10:55:50;7.30;99.90
22526;DHT22;11429;50.842;4.386;2023-02-10T10:58:35;7.20;99.90
22526;DHT22;11429;50.842;4.386;2023-02-10T11:01:01;7.10;99.90
22526;DHT22;11429;50.842;4.386;2023-02-10T11:03:28;7.10;99.90
22526;DHT22;11429;50.842;4.386;2023-02-10T11:08:29;6.90;99.90
22526;DHT22;11429;50.842;4.386;2023-02-10T11:10:57;6.90;99.90
22526;DHT22;11429;50.842;4.386;2023-02-10T11:13:26;6.70;99.90
22526;DHT22;11429;50.842;4.386;2023-02-10T11:16:12;6.80;99.90
22526;DHT22;11429;50.842;4.386;2023-02-10T11:18:54;6.70;99.90
22526;DHT22;11429;50.842;4.386;2023-02-10T11:21:21;7.00;99.90
22526;DHT22;11429;50.842;4.386;2023-02-10T11:23:48;7.00;99.90
22526;DHT22;11429;50.842;4.386;2023-02-10T11:26:20;6.90;99.90
22526;DHT22;11429;50.842;4.386;2023-02-10T11:28:46;7.00;99.90
22526;DHT22;11429;50.842;4.386;2023-02-10T11:36:46;7.30;99.90
22526;DHT22;11429;50.842;4.386;2023-02-10T11:41:53;7.40;99.90
22526;DHT22;11429;50.842;4.386;2023-02-10T11:44:23;7.40;99.90
22526;DHT22;11429;50.842;4.386;2023-02-10T11:46:59;7.50;99.90
22526;DHT22;11429;50.842;4.386;2023-02-10T11:49:26;7.70;99.90
22526;DHT22;11429;50.842;4.386;2023-02-10T11:51:57;7.40;99.90
22526;DHT22;11429;50.842;4.386;2023-02-10T11:54:24;7.70;99.90
22526;DHT22;11429;50.842;4.386;2023-02-10T12:00:19;8.00;99.90
22526;DHT22;11429;50.842;4.386;2023-02-10T12:05:31;7.90;99.90
22526;DHT22;11429;50.842;4.386;2023-02-10T12:08:29;7.70;99.90
22526;DHT22;11429;50.842;4.386;2023-02-10T12:11:14;7.80;99.90
22526;DHT22;11429;50.842;4.386;2023-02-10T12:13:48;7.60;99.90
22526;DHT22;11429;50.842;4.386;2023-02-10T12:19:13;8.00;99.90
22526;DHT22;11429;50.842;4.386;2023-02-10T12:27:13;8.50;99.90
22526;DHT22;11429;50.842;4.386;2023-02-10T12:41:06;8.20;99.90
22526;DHT22;11429;50.842;4.386;2023-02-10T12:51:48;8.20;99.90
22526;DHT22;11429;50.842;4.386;2023-02-10T12:54:43;8.60;99.90
22526;DHT22;11429;50.842;4.386;2023-02-10T12:57:16;8.20;99.90
22526;DHT22;11429;50.842;4.386;2023-02-10T13:00:08;8.20;99.90
22526;DHT22;11429;50.842;4.386;2023-02-10T13:05:20;8.00;99.90
22526;DHT22;11429;50.842;4.386;2023-02-10T13:07:56;7.80;99.90
22526;DHT22;11429;50.842;4.386;2023-02-10T13:10:39;7.80;99.90
22526;DHT22;11429;50.842;4.386;2023-02-10T13:13:16;7.90;99.90
22526;DHT22;11429;50.842;4.386;2023-02-10T13:15:52;7.90;99.90
22526;DHT22;11429;50.842;4.386;2023-02-10T13:18:22;7.90;99.90
22526;DHT22;11429;50.842;4.386;2023-02-10T13:21:01;8.00;99.90
22526;DHT22;11429;50.842;4.386;2023-02-10T13:23:36;8.40;99.90
22526;DHT22;11429;50.842;4.386;2023-02-10T13:34:24;8.20;99.90
22526;DHT22;11429;50.842;4.386;2023-02-10T13:37:13;7.80;99.90
22526;DHT22;11429;50.842;4.386;2023-02-10T13:39:54;7.70;99.90
22526;DHT22;11429;50.842;4.386;2023-02-10T13:45:14;7.90;99.90
22526;DHT22;11429;50.842;4.386;2023-02-10T13:48:01;8.00;99.90
22526;DHT22;11429;50.842;4.386;2023-02-10T13:50:46;8.10;99.90
22526;DHT22;11429;50.842;4.386;2023-02-10T13:56:27;8.20;99.90
22526;DHT22;11429;50.842;4.386;2023-02-10T13:58:59;8.30;99.90
22526;DHT22;11429;50.842;4.386;2023-02-10T14:01:41;8.10;99.90
22526;DHT22;11429;50.842;4.386;2023-02-10T14:04:28;8.20;99.90
22526;DHT22;11429;50.842;4.386;2023-02-10T14:06:54;8.30;99.90
22526;DHT22;11429;50.842;4.386;2023-02-10T14:11:54;8.10;99.90
22526;DHT22;11429;50.842;4.386;2023-02-10T14:14:27;8.10;99.90
22526;DHT22;11429;50.842;4.386;2023-02-10T14:17:04;8.20;99.90
22526;DHT22;11429;50.842;4.386;2023-02-10T14:19:35;8.40;99.90
22526;DHT22;11429;50.842;4.386;2023-02-10T14:22:04;8.40;99.90
22526;DHT22;11429;50.842;4.386;2023-02-10T14:24:38;8.40;99.90
22526;DHT22;11429;50.842;4.386;2023-02-10T14:27:11;8.20;99.90
22526;DHT22;11429;50.842;4.386;2023-02-10T14:29:42;8.00;99.90
22526;DHT22;11429;50.842;4.386;2023-02-10T14:32:13;8.20;99.90
22526;DHT22;11429;50.842;4.386;2023-02-10T14:34:40;8.30;99.90
22526;DHT22;11429;50.842;4.386;2023-02-10T14:37:20;8.20;99.90
22526;DHT22;11429;50.842;4.386;2023-02-10T14:39:58;8.10;99.90
22526;DHT22;11429;50.842;4.386;2023-02-10T14:42:27;8.10;99.90
22526;DHT22;11429;50.842;4.386;2023-02-10T14:44:56;8.20;99.90
22526;DHT22;11429;50.842;4.386;2023-02-10T14:47:27;8.40;99.90
22526;DHT22;11429;50.842;4.386;2023-02-10T14:49:56;8.60;99.90
22526;DHT22;11429;50.842;4.386;2023-02-10T14:52:35;8.50;99.90
22526;DHT22;11429;50.842;4.386;2023-02-10T14:55:20;8.40;99.90
22526;DHT22;11429;50.842;4.386;2023-02-10T14:57:46;8.50;99.90
22526;DHT22;11429;50.842;4.386;2023-02-10T15:00:14;8.30;99.90
22526;DHT22;11429;50.842;4.386;2023-02-10T15:02:40;8.20;99.90
22526;DHT22;11429;50.842;4.386;2023-02-10T15:05:10;8.50;99.90
22526;DHT22;11429;50.842;4.386;2023-02-10T15:07:45;8.30;99.90
22526;DHT22;11429;50.842;4.386;2023-02-10T15:10:38;8.10;99.90
22526;DHT22;11429;50.842;4.386;2023-02-10T15:13:06;7.90;99.90
22526;DHT22;11429;50.842;4.386;2023-02-10T15:15:39;7.70;99.90
22526;DHT22;11429;50.842;4.386;2023-02-10T15:18:19;7.60;99.90
22526;DHT22;11429;50.842;4.386;2023-02-10T15:23:19;7.50;99.90
22526;DHT22;11429;50.842;4.386;2023-02-10T15:25:45;7.40;99.90
22526;DHT22;11429;50.842;4.386;2023-02-10T15:33:33;7.30;99.90
22526;DHT22;11429;50.842;4.386;2023-02-10T15:46:50;7.40;99.90
22526;DHT22;11429;50.842;4.386;2023-02-10T15:49:18;7.30;99.90
22526;DHT22;11429;50.842;4.386;2023-02-10T15:51:53;7.30;99.90
22526;DHT22;11429;50.842;4.386;2023-02-10T15:54:24;7.30;99.90
22526;DHT22;11429;50.842;4.386;2023-02-10T15:57:00;7.40;99.90
22526;DHT22;11429;50.842;4.386;2023-02-10T15:59:26;7.30;99.90
22526;DHT22;11429;50.842;4.386;2023-02-10T16:01:55;7.30;99.90
22526;DHT22;11429;50.842;4.386;2023-02-10T16:04:21;7.30;99.90
22526;DHT22;11429;50.842;4.386;2023-02-10T16:06:47;7.20;99.90
22526;DHT22;11429;50.842;4.386;2023-02-10T16:09:13;7.20;99.90
22526;DHT22;11429;50.842;4.386;2023-02-10T16:11:39;7.30;99.90
22526;DHT22;11429;50.842;4.386;2023-02-10T16:14:05;7.20;99.90
22526;DHT22;11429;50.842;4.386;2023-02-10T16:16:30;7.20;99.90
22526;DHT22;11429;50.842;4.386;2023-02-10T16:18:56;7.30;99.90
22526;DHT22;11429;50.842;4.386;2023-02-10T16:21:23;7.30;99.90
22526;DHT22;11429;50.842;4.386;2023-02-10T16:23:49;7.40;99.90
22526;DHT22;11429;50.842;4.386;2023-02-10T16:26:22;7.40;99.90
22526;DHT22;11429;50.842;4.386;2023-02-10T16:28:49;7.40;99.90
22526;DHT22;11429;50.842;4.386;2023-02-10T16:31:16;7.40;99.90
22526;DHT22;11429;50.842;4.386;2023-02-10T16:33:44;7.40;99.90
22526;DHT22;11429;50.842;4.386;2023-02-10T16:36:13;7.40;99.90
22526;DHT22;11429;50.842;4.386;2023-02-10T16:38:39;7.30;99.90
22526;DHT22;11429;50.842;4.386;2023-02-10T16:41:05;7.20;99.90
22526;DHT22;11429;50.842;4.386;2023-02-10T16:43:30;7.20;99.90
22526;DHT22;11429;50.842;4.386;2023-02-10T16:45:56;7.20;99.90
22526;DHT22;11429;50.842;4.386;2023-02-10T16:48:22;7.20;99.90
22526;DHT22;11429;50.842;4.386;2023-02-10T16:50:48;7.20;99.90
22526;DHT22;11429;50.842;4.386;2023-02-10T16:53:13;7.20;99.90
22526;DHT22;11429;50.842;4.386;2023-02-10T16:55:40;7.10;99.90
22526;DHT22;11429;50.842;4.386;2023-02-10T16:58:07;7.10;99.90
22526;DHT22;11429;50.842;4.386;2023-02-10T17:00:36;7.20;99.90
22526;DHT22;11429;50.842;4.386;2023-02-10T17:03:02;7.10;99.90
22526;DHT22;11429;50.842;4.386;2023-02-10T17:05:28;7.20;99.90
22526;DHT22;11429;50.842;4.386;2023-02-10T17:07:55;7.10;99.90
22526;DHT22;11429;50.842;4.386;2023-02-10T17:10:23;7.10;99.90
22526;DHT22;11429;50.842;4.386;2023-02-10T17:12:49;7.00;99.90
22526;DHT22;11429;50.842;4.386;2023-02-10T17:15:15;7.10;99.90
22526;DHT22;11429;50.842;4.386;2023-02-10T17:17:41;7.10;99.90
22526;DHT22;11429;50.842;4.386;2023-02-10T17:20:22;7.10;99.90
22526;DHT22;11429;50.842;4.386;2023-02-10T17:22:48;7.10;99.90
22526;DHT22;11429;50.842;4.386;2023-02-10T17:25:14;7.00;99.90
22526;DHT22;11429;50.842;4.386;2023-02-10T17:27:40;7.00;99.90
22526;DHT22;11429;50.842;4.386;2023-02-10T17:30:06;7.00;99.90
22526;DHT22;11429;50.842;4.386;2023-02-10T17:32:32;7.00;99.90
22526;DHT22;11429;50.842;4.386;2023-02-10T17:34:58;7.00;99.90
22526;DHT22;11429;50.842;4.386;2023-02-10T17:37:24;6.90;99.90
22526;DHT22;11429;50.842;4.386;2023-02-10T17:39:49;6.90;99.90
22526;DHT22;11429;50.842;4.386;2023-02-10T17:42:15;7.00;99.90
22526;DHT22;11429;50.842;4.386;2023-02-10T17:44:44;7.00;99.90
22526;DHT22;11429;50.842;4.386;2023-02-10T17:47:09;7.00;99.90
22526;DHT22;11429;50.842;4.386;2023-02-10T17:49:35;7.00;99.90
22526;DHT22;11429;50.842;4.386;2023-02-10T17:52:01;7.00;99.90
22526;DHT22;11429;50.842;4.386;2023-02-10T17:54:28;7.00;99.90
22526;DHT22;11429;50.842;4.386;2023-02-10T17:56:56;7.00;99.90
22526;DHT22;11429;50.842;4.386;2023-02-10T17:59:21;7.10;99.90
22526;DHT22;11429;50.842;4.386;2023-02-10T18:01:47;7.10;99.90